Time;durP1;ratioP1;P1;durP2;ratioP2;P2;SDS_P1;SDS_P2;PMS_P1;PMS_P2;Temp;Humidity;BMP_temperature;BMP_pressure;BME280_temperature;BME280_humidity;BME280_pressure;Samples;Min_cycle;Max_cycle;Signal;HPM_P1;HPM_P2
2022/06/17 00:01:55;;;;;;;11.82;8.27;;;;;;;18.06;100.00;108136.19;5108463;28;20641;-81
2022/06/17 00:04:20;;;;;;;12.52;9.13;;;;;;;18.08;100.00;117033.22;5094407;28;20087;-81
2022/06/17 00:06:53;;;;;;;11.55;9.15;;;;;;;18.13;100.00;121154.91;5088861;28;20024;-84
2022/06/17 00:09:20;;;;;;;13.88;9.73;;;;;;;18.04;100.00;98236.59;5108557;28;20023;-82
2022/06/17 00:11:48;;;;;;;12.38;9.10;;;;;;;17.96;100.00;97201.34;5100584;28;20468;-82
2022/06/17 00:14:23;;;;;;;11.73;8.68;;;;;;;18.04;100.00;96532.84;5093599;28;20036;-84
2022/06/17 00:16:49;;;;;;;11.75;9.40;;;;;;;18.05;100.00;91427.53;5097997;28;20027;-83
2022/06/17 00:19:17;;;;;;;13.65;9.25;;;;;;;18.05;100.00;69371.81;5108843;28;20220;-84
2022/06/17 00:21:45;;;;;;;11.00;8.63;;;;;;;17.93;100.00;87329.47;5104720;28;20534;-80
2022/06/17 00:24:26;;;;;;;13.32;8.60;;;;;;;17.86;100.00;118017.13;5087439;28;20040;-82
2022/06/17 00:26:54;;;;;;;10.50;8.57;;;;;;;17.79;100.00;142037.09;5100492;28;20052;-79
2022/06/17 00:29:22;;;;;;;13.98;9.18;;;;;;;17.81;100.00;114926.75;5096743;28;20049;-83
2022/06/17 00:31:48;;;;;;;13.93;10.65;;;;;;;17.75;100.00;90020.28;5111932;28;20059;-82
2022/06/17 00:34:18;;;;;;;13.10;10.55;;;;;;;17.77;100.00;63929.66;5110658;28;20088;-79
2022/06/17 00:36:44;;;;;;;13.40;10.83;;;;;;;17.68;100.00;47741.72;5096951;28;20026;-80
2022/06/17 00:39:17;;;;;;;13.48;10.38;;;;;;;17.60;100.00;33299.59;5111312;28;20371;-81
2022/06/17 00:41:47;;;;;;;12.07;9.82;;;;;;;17.59;100.00;37657.69;5111172;28;20088;-83
2022/06/17 00:44:37;;;;;;;14.65;10.40;;;;;;;17.47;100.00;56812.13;5073943;28;20050;-83
2022/06/17 00:47:24;;;;;;;12.02;9.95;;;;;;;17.49;100.00;64235.13;5090301;28;20028;-82
2022/06/17 00:49:59;;;;;;;14.32;11.27;;;;;;;17.37;100.00;43010.34;5091659;28;20070;-79
2022/06/17 00:52:43;;;;;;;15.90;12.00;;;;;;;17.33;100.00;35962.66;5092001;28;20066;-75
2022/06/17 00:55:36;;;;;;;16.13;12.45;;;;;;;17.23;100.00;21906.41;5091596;28;20074;-82
2022/06/17 00:58:11;;;;;;;16.17;12.32;;;;;;;17.17;100.00;9569.63;5091893;28;20049;-83
2022/06/17 01:00:37;;;;;;;14.80;12.75;;;;;;;17.10;100.00;260.91;5093008;28;20020;-80
2022/06/17 01:03:09;;;;;;;15.80;12.20;;;;;;;17.08;100.00;-3720.88;5092159;28;20424;-82
2022/06/17 01:05:41;;;;;;;14.30;11.50;;;;;;;17.08;100.00;-6704.34;5092082;28;20016;-81
2022/06/17 01:11:11;;;;;;;16.02;13.68;;;;;;;16.91;100.00;-14977.69;5093111;28;20093;-73
2022/06/17 01:13:37;;;;;;;18.23;12.48;;;;;;;16.98;100.00;-17952.72;5091155;28;20436;-80
2022/06/17 01:16:04;;;;;;;20.02;15.13;;;;;;;16.95;100.00;-19603.59;5092613;28;20110;-79
2022/06/17 01:18:33;;;;;;;16.13;12.77;;;;;;;16.95;100.00;-20263.81;5091259;28;20016;-76
2022/06/17 01:21:07;;;;;;;16.35;13.48;;;;;;;16.93;100.00;-20923.69;5110914;28;20031;-83
2022/06/17 01:23:35;;;;;;;17.05;13.45;;;;;;;16.95;100.00;-21584.09;5107036;28;20032;-77
2022/06/17 01:26:00;;;;;;;16.58;13.73;;;;;;;16.97;100.00;-22244.66;5093663;28;20073;-83
2022/06/17 01:28:26;;;;;;;17.48;14.07;;;;;;;16.89;100.00;-21252.88;5093842;28;20024;-79
2022/06/17 01:30:57;;;;;;;16.40;14.15;;;;;;;16.86;100.00;-21912.13;5093743;28;20027;-82
2022/06/17 01:33:31;;;;;;;18.15;15.55;;;;;;;16.72;100.00;-25535.81;5093229;28;20341;-83
2022/06/17 01:36:12;;;;;;;18.73;14.85;;;;;;;16.66;100.00;-25536.16;5091617;28;20032;-78
2022/06/17 01:38:42;;;;;;;19.52;15.40;;;;;;;16.59;100.00;-25533.97;5093262;28;20400;-81
2022/06/17 01:41:08;;;;;;;19.27;14.60;;;;;;;16.65;100.00;-25535.88;5092604;28;20083;-81
2022/06/17 01:43:40;;;;;;;15.98;14.27;;;;;;;16.68;100.00;-25536.75;5092345;28;20039;-80
2022/06/17 01:46:11;;;;;;;19.95;14.07;;;;;;;16.77;100.00;-25539.06;5093065;28;20028;-80
2022/06/17 01:48:41;;;;;;;18.02;12.90;;;;;;;16.82;100.00;-25540.66;5092867;28;20051;-82
2022/06/17 01:51:09;;;;;;;15.55;13.20;;;;;;;16.77;100.00;-25539.22;5092572;28;20020;-81
2022/06/17 01:53:39;;;;;;;15.77;13.50;;;;;;;16.74;100.00;-25538.19;5092302;28;20054;-79
2022/06/17 01:56:11;;;;;;;17.75;13.52;;;;;;;16.66;100.00;-25536.00;5092635;28;20543;-81
2022/06/17 01:58:46;;;;;;;17.35;14.45;;;;;;;16.59;100.00;-25534.13;5092734;28;20028;-82
2022/06/17 02:01:13;;;;;;;15.18;13.50;;;;;;;16.65;100.00;-25535.72;5092096;28;20402;-83
2022/06/17 02:03:44;;;;;;;18.33;14.43;;;;;;;16.64;100.00;-25535.59;5092200;28;20093;-83
2022/06/17 02:06:19;;;;;;;15.55;13.38;;;;;;;16.58;100.00;-25533.69;5093180;28;20016;-84
2022/06/17 02:08:44;;;;;;;15.63;12.05;;;;;;;16.66;100.00;-25534.09;5092394;28;20028;-80
2022/06/17 02:11:11;;;;;;;14.00;11.50;;;;;;;16.65;100.00;-22237.19;5092478;28;20027;-82
2022/06/17 02:13:36;;;;;;;14.30;11.25;;;;;;;16.66;100.00;-18938.03;5092142;28;20388;-80
2022/06/17 02:16:05;;;;;;;14.57;11.70;;;;;;;16.69;100.00;-15966.41;5092705;28;20027;-83
2022/06/17 02:18:30;;;;;;;16.33;11.45;;;;;;;16.68;100.00;-13653.03;5092218;28;20392;-82
2022/06/17 02:21:02;;;;;;;14.93;11.48;;;;;;;16.66;100.00;-11007.50;5094338;28;20031;-81
2022/06/17 02:23:28;;;;;;;15.35;11.02;;;;;;;16.78;100.00;-9022.59;5092365;28;20037;-82
2022/06/17 02:25:56;;;;;;;13.95;11.20;;;;;;;16.80;100.00;-7035.97;5091783;28;20027;-79
2022/06/17 02:28:26;;;;;;;13.30;10.13;;;;;;;16.87;100.00;-5048.00;5092628;28;20012;-81
2022/06/17 02:30:52;;;;;;;14.10;10.70;;;;;;;16.88;100.00;-3722.13;5093188;28;20051;-79
2022/06/17 02:33:18;;;;;;;12.85;10.13;;;;;;;16.79;100.00;-2396.53;5091743;28;20353;-82
2022/06/17 02:35:56;;;;;;;12.75;10.60;;;;;;;16.91;100.00;-736.97;5091851;28;20093;-82
2022/06/17 02:38:26;;;;;;;12.02;10.13;;;;;;;16.91;100.00;1918.31;5091932;28;20487;-82
2022/06/17 02:40:58;;;;;;;15.40;10.40;;;;;;;16.86;100.00;1585.69;5092109;28;20112;-81
2022/06/17 02:43:27;;;;;;;15.60;10.05;;;;;;;16.79;100.00;2912.59;5091870;28;20207;-80
2022/06/17 02:45:58;;;;;;;15.13;9.90;;;;;;;16.83;100.00;3909.53;5091699;28;20023;-83
2022/06/17 02:48:31;;;;;;;15.05;10.45;;;;;;;16.83;100.00;5570.66;5093442;28;20028;-81
2022/06/17 02:51:00;;;;;;;12.27;10.15;;;;;;;16.88;100.00;5903.97;5091931;28;20024;-81
2022/06/17 02:53:35;;;;;;;12.02;9.23;;;;;;;16.89;100.00;5571.94;5091553;28;20024;-82
2022/06/17 02:56:07;;;;;;;12.82;9.57;;;;;;;16.95;100.00;6902.78;5092230;28;20678;-82
2022/06/17 02:58:49;;;;;;;12.43;9.73;;;;;;;17.03;100.00;7569.75;5090895;28;20422;-81
2022/06/17 03:01:21;;;;;;;13.27;9.85;;;;;;;17.04;100.00;8568.00;5091666;28;20024;-80
2022/06/17 03:03:47;;;;;;;12.68;9.95;;;;;;;17.09;100.00;9567.38;5091585;28;20020;-81
2022/06/17 03:06:34;;;;;;;11.13;8.95;;;;;;;17.13;100.00;9901.16;5092499;28;20043;-82
2022/06/17 03:09:14;;;;;;;13.73;9.55;;;;;;;17.16;100.00;10900.81;5099854;28;20061;-81
2022/06/17 03:11:41;;;;;;;13.25;9.48;;;;;;;17.16;100.00;10900.69;5091612;28;20016;-81
2022/06/17 03:14:09;;;;;;;11.40;9.05;;;;;;;17.13;100.00;12564.69;5091398;28;20040;-82
2022/06/17 03:16:35;;;;;;;13.07;9.38;;;;;;;17.14;100.00;11898.94;5091815;28;20024;-82
2022/06/17 03:19:02;;;;;;;11.68;9.93;;;;;;;17.11;100.00;10899.31;5091388;28;20035;-82
2022/06/17 03:21:27;;;;;;;12.02;9.48;;;;;;;17.08;100.00;11231.16;5090945;28;20013;-79
2022/06/17 03:24:15;;;;;;;12.68;9.65;;;;;;;17.22;100.00;10569.53;5090433;28;20059;-81
2022/06/17 03:26:50;;;;;;;13.73;9.27;;;;;;;17.22;100.00;13234.06;5090830;28;20028;-78
2022/06/17 03:29:21;;;;;;;11.45;9.13;;;;;;;17.25;100.00;14900.97;5090506;28;20480;-81
2022/06/17 03:31:49;;;;;;;;;;;;;;;17.26;100.00;15901.41;5091626;28;20020;-78
2022/06/17 03:34:21;;;;;;;11.38;9.18;;;;;;;17.25;100.00;14901.16;5090801;28;19912;-82
2022/06/17 03:36:54;;;;;;;13.65;9.23;;;;;;;17.37;100.00;16239.09;5091494;28;20546;-81
2022/06/17 03:39:29;;;;;;;11.48;9.13;;;;;;;17.26;100.00;15901.63;5090318;28;20413;-74
2022/06/17 03:42:16;;;;;;;12.63;9.63;;;;;;;17.36;100.00;16572.22;5073485;28;20028;-75
2022/06/17 03:44:49;;;;;;;10.15;8.38;;;;;;;17.38;100.00;17907.38;5090211;28;20024;-79
2022/06/17 03:47:22;;;;;;;12.48;8.90;;;;;;;17.29;100.00;16903.16;5090143;28;20031;-76
2022/06/17 03:50:00;;;;;;;10.32;8.73;;;;;;;17.28;100.00;13235.75;5089850;28;20031;-77
2022/06/17 03:52:46;;;;;;;11.77;9.23;;;;;;;17.41;100.00;11241.13;5091246;28;20036;-75
2022/06/17 03:55:17;;;;;;;10.88;8.70;;;;;;;17.53;100.00;13577.41;5090246;28;20400;-77
2022/06/17 03:57:45;;;;;;;12.10;8.68;;;;;;;17.54;100.00;15911.94;5091071;28;20488;-79
2022/06/17 04:00:18;;;;;;;12.10;8.82;;;;;;;17.58;100.00;16580.88;5090265;28;20016;-75
2022/06/17 04:02:50;;;;;;;14.85;9.32;;;;;;;17.53;100.00;15578.22;5070391;28;20033;-79
2022/06/17 04:05:17;;;;;;;11.02;9.10;;;;;;;17.54;100.00;14577.94;5088642;28;20046;-77
2022/06/17 04:07:43;;;;;;;11.32;9.15;;;;;;;17.53;100.00;15244.72;5090718;28;20028;-76
2022/06/17 04:10:34;;;;;;;12.65;9.13;;;;;;;17.47;100.00;12242.47;5070756;28;20032;-82
2022/06/17 04:13:02;;;;;;;;;;;;;;;17.37;100.00;9242.16;5084394;28;20024;-79
2022/06/17 04:15:55;;;;;;;12.88;8.50;;;;;;;17.36;100.00;7577.66;5090873;28;19917;-77
2022/06/17 04:18:21;;;;;;;12.40;8.73;;;;;;;17.51;100.00;7248.56;5091171;28;20057;-80
2022/06/17 04:20:51;;;;;;;14.00;8.60;;;;;;;17.56;100.00;10579.31;5091799;28;20016;-82
2022/06/17 04:23:21;;;;;;;9.80;8.07;;;;;;;17.60;100.00;13579.81;5091344;28;20036;-82
2022/06/17 04:25:50;;;;;;;;;;;;;;;17.55;100.00;15245.44;5090547;28;20035;-78
2022/06/17 04:28:21;;;;;;;10.55;8.63;;;;;;;17.65;100.00;14581.75;5090317;28;19923;-83
2022/06/17 04:30:52;;;;;;;14.55;8.38;;;;;;;17.63;100.00;14914.53;5091088;28;20020;-75
2022/06/17 04:33:39;;;;;;;11.07;8.48;;;;;;;17.67;100.00;14916.16;5090264;28;20052;-79
2022/06/17 04:36:12;;;;;;;10.48;7.90;;;;;;;17.71;100.00;16252.13;5090877;28;20143;-80
2022/06/17 04:39:05;;;;;;;12.73;8.02;;;;;;;17.82;100.00;18927.00;5091130;28;20225;-82
2022/06/17 04:41:36;;;;;;;10.85;8.25;;;;;;;17.76;100.00;21597.00;5092150;28;20020;-83
2022/06/17 04:44:04;;;;;;;10.95;7.55;;;;;;;17.69;100.00;22595.94;5091643;28;20020;-80
2022/06/17 04:46:41;;;;;;;12.43;8.30;;;;;;;17.70;100.00;21259.81;5090922;28;20122;-76
2022/06/17 04:49:16;;;;;;;11.13;7.80;;;;;;;17.74;100.00;22264.16;5092244;28;20409;-80
2022/06/17 04:51:42;;;;;;;10.23;7.80;;;;;;;17.86;100.00;20932.91;5096353;28;20380;-83
2022/06/17 04:54:14;;;;;;;10.95;8.07;;;;;;;17.94;100.00;24949.09;5092901;28;20036;-84
2022/06/17 04:56:42;;;;;;;10.10;7.55;;;;;;;18.01;100.00;30979.63;5096854;28;20016;-84
2022/06/17 04:59:34;;;;;;;11.90;7.78;;;;;;;18.05;100.00;40376.63;5096729;28;20032;-78
2022/06/17 05:02:02;;;;;;;9.07;7.40;;;;;;;18.14;100.00;56542.75;5095364;28;20058;-82
2022/06/17 05:04:28;;;;;;;12.48;8.40;;;;;;;18.16;100.00;69724.13;5094948;28;20114;-76
2022/06/17 05:06:54;;;;;;;9.75;7.35;;;;;;;18.21;100.00;90092.41;5094913;28;20113;-77
2022/06/17 05:09:42;;;;;;;10.02;7.30;;;;;;;18.27;100.00;107834.41;5094283;28;20066;-79
2022/06/17 05:12:36;;;;;;;10.00;7.63;;;;;;;18.08;100.00;113268.34;5093619;28;20048;-74
2022/06/17 05:15:06;;;;;;;12.32;8.10;;;;;;;18.09;100.00;118063.69;5093552;28;20150;-75
2022/06/17 05:17:32;;;;;;;10.88;8.15;;;;;;;18.06;100.00;128344.22;5093701;28;20020;-77
2022/06/17 05:19:57;;;;;;;12.48;8.32;;;;;;;18.27;100.00;136297.59;5097627;28;20027;-77
2022/06/17 05:22:31;;;;;;;12.85;7.95;;;;;;;18.33;100.00;145592.00;5095670;28;20024;-82
2022/06/17 05:24:57;;;;;;;10.40;7.57;;;;;;;18.44;100.00;147364.06;5094662;28;20361;-81
2022/06/17 05:27:23;;;;;;;11.90;7.82;;;;;;;18.53;100.00;147387.09;5094904;28;20364;-81
2022/06/17 05:29:49;;;;;;;12.13;8.50;;;;;;;18.45;100.00;147366.63;5094057;28;20028;-78
2022/06/17 05:32:18;;;;;;;12.02;8.07;;;;;;;18.67;100.00;147421.63;5094488;28;20021;-77
2022/06/17 05:34:44;;;;;;;10.75;7.88;;;;;;;18.62;100.00;147410.13;5092515;28;20088;-74
2022/06/17 05:37:10;;;;;;;11.15;8.48;;;;;;;18.60;100.00;147405.03;5092423;28;20066;-73
2022/06/17 05:39:35;;;;;;;11.57;8.23;;;;;;;18.68;100.00;147424.22;5091964;28;20032;-78
2022/06/17 05:42:01;;;;;;;12.05;8.15;;;;;;;18.80;100.00;147454.94;5092105;28;20028;-73
2022/06/17 05:44:27;;;;;;;12.35;8.48;;;;;;;18.90;100.00;147479.28;5093558;28;20131;-77
2022/06/17 05:46:53;;;;;;;13.02;8.18;;;;;;;18.99;100.00;147501.06;5091499;28;20028;-73
2022/06/17 05:49:18;;;;;;;13.38;8.90;;;;;;;19.09;100.00;147525.34;5092304;28;20024;-73
2022/06/17 05:51:44;;;;;;;12.60;8.95;;;;;;;19.13;100.00;147536.88;5092010;28;20101;-76
2022/06/17 05:54:09;;;;;;;10.60;8.43;;;;;;;19.19;100.00;147552.25;5091930;28;20024;-73
2022/06/17 05:56:35;;;;;;;11.48;8.20;;;;;;;19.26;100.00;147568.88;5091371;28;20123;-73
2022/06/17 05:59:00;;;;;;;10.48;8.45;;;;;;;19.35;100.00;147590.66;5087180;28;20027;-73
2022/06/17 06:01:25;;;;;;;13.43;8.93;;;;;;;19.41;100.00;147606.00;5108091;28;20059;-76
2022/06/17 06:03:51;;;;;;;15.60;8.55;;;;;;;19.69;100.00;147676.41;5091180;28;20477;-74
2022/06/17 06:06:16;;;;;;;11.07;8.15;;;;;;;19.96;100.00;147743.03;5092304;28;20031;-74
2022/06/17 06:08:42;;;;;;;9.80;7.60;;;;;;;20.32;100.00;147831.44;5090368;28;20024;-73
2022/06/17 06:11:07;;;;;;;10.93;8.27;;;;;;;20.61;100.00;147905.72;5109135;28;20110;-78
2022/06/17 06:13:33;;;;;;;10.90;7.78;;;;;;;20.74;100.00;147937.84;5092923;28;20476;-82
2022/06/17 06:16:01;;;;;;;10.63;7.65;;;;;;;20.67;100.00;147918.63;5108560;28;20365;-74
2022/06/17 06:18:33;;;;;;;9.65;7.60;;;;;;;20.80;100.00;147951.91;5090915;28;20401;-73
2022/06/17 06:21:04;;;;;;;12.52;8.02;;;;;;;21.03;100.00;148009.59;5091074;28;20538;-74
2022/06/17 06:23:32;;;;;;;9.77;7.15;;;;;;;21.29;100.00;148073.69;5108407;28;20040;-74
2022/06/17 06:25:57;;;;;;;9.75;7.47;;;;;;;21.32;100.00;148082.66;5108467;28;20494;-74
2022/06/17 06:28:24;;;;;;;10.77;7.00;;;;;;;21.49;100.00;148125.00;5091134;28;20020;-75
2022/06/17 06:30:57;;;;;;;10.50;6.88;;;;;;;21.73;100.00;148183.97;5107494;28;20089;-73
2022/06/17 06:33:22;;;;;;;9.23;6.80;;;;;;;21.74;100.00;148185.28;5091283;28;20090;-72
2022/06/17 06:35:48;;;;;;;10.10;6.90;;;;;;;22.11;100.00;148278.91;5090558;28;20492;-74
2022/06/17 06:38:13;;;;;;;9.68;6.93;;;;;;;21.95;100.00;148237.84;5091323;28;20464;-81
2022/06/17 06:40:40;;;;;;;9.35;6.88;;;;;;;22.16;100.00;148291.72;5091228;28;20068;-76
2022/06/17 06:43:15;;;;;;;10.65;6.57;;;;;;;22.30;100.00;148325.06;5090782;28;20024;-73
2022/06/17 06:45:42;;;;;;;11.35;6.90;;;;;;;22.47;100.00;148368.72;5108379;28;20395;-78
2022/06/17 06:48:09;;;;;;;8.85;6.30;;;;;;;22.84;100.00;148461.13;5091975;28;20031;-73
2022/06/17 06:50:36;;;;;;;9.88;6.15;;;;;;;22.62;100.00;148404.63;5107954;28;20024;-73
2022/06/17 06:53:02;;;;;;;9.93;6.18;;;;;;;22.83;100.00;148457.25;5090401;28;20111;-75
2022/06/17 06:55:28;;;;;;;8.80;6.28;;;;;;;23.21;100.00;148553.56;5091671;28;20476;-76
2022/06/17 06:57:56;;;;;;;8.15;5.80;;;;;;;23.64;100.00;148660.09;5090273;28;20024;-81
2022/06/17 07:00:30;;;;;;;8.63;6.22;;;;;;;23.67;100.00;148667.81;5090505;28;20119;-77
2022/06/17 07:02:56;;;;;;;10.65;6.05;;;;;;;23.65;100.00;148663.94;5108067;28;20024;-77
2022/06/17 07:05:21;;;;;;;8.90;5.72;;;;;;;24.36;100.00;148841.22;5090718;28;20027;-82
2022/06/17 07:07:47;;;;;;;6.60;5.70;;;;;;;24.72;100.00;148929.91;5089964;28;20035;-76
2022/06/17 07:10:25;;;;;;;11.45;5.90;;;;;;;25.15;100.00;149036.53;5090724;28;20031;-75
2022/06/17 07:12:52;;;;;;;7.97;5.32;;;;;;;26.12;100.00;149280.91;5090195;28;20459;-79
2022/06/17 07:15:17;;;;;;;10.30;5.20;;;;;;;26.67;100.00;149417.28;5091069;28;20042;-73
2022/06/17 07:18:10;;;;;;;6.78;4.80;;;;;;;27.72;100.00;149679.84;5106742;28;20429;-71
2022/06/17 07:20:42;;;;;;;7.90;4.85;;;;;;;28.11;100.00;149779.00;5089837;28;20027;-72
2022/06/17 07:23:13;;;;;;;7.43;4.70;;;;;;;26.96;100.00;149489.34;5107098;28;20039;-73
2022/06/17 07:25:39;;;;;;;9.20;5.07;;;;;;;27.58;100.00;149646.34;5106777;28;20047;-73
2022/06/17 07:28:05;;;;;;;6.82;4.50;;;;;;;27.84;100.00;149710.69;5106510;28;20016;-75
2022/06/17 07:30:32;;;;;;;8.65;4.18;;;;;;;28.76;100.00;149940.00;5090452;28;20157;-81
2022/06/17 07:32:57;;;;;;;9.20;4.97;;;;;;;28.89;100.00;149972.22;5106576;28;20020;-75
2022/06/17 07:35:23;;;;;;;6.88;4.50;;;;;;;29.25;100.00;150062.44;5089313;28;20054;-82
2022/06/17 07:40:34;;;;;;;10.10;4.10;;;;;;;30.06;100.00;150267.41;5091493;28;20084;-78
2022/06/17 07:43:00;;;;;;;5.55;3.33;;;;;;;30.17;100.00;150293.16;5106342;28;20024;-81
2022/06/17 07:45:28;;;;;;;7.95;3.42;;;;;;;29.78;100.00;150196.44;5090225;28;20028;-78
2022/06/17 07:47:55;;;;;;;5.07;3.33;;;;;;;29.39;100.00;150098.50;5106580;28;20054;-83
2022/06/17 07:50:25;;;;;;;5.80;3.75;;;;;;;29.55;100.00;150138.44;5090837;28;20111;-81
2022/06/17 07:52:51;;;;;;;6.72;3.65;;;;;;;29.64;100.00;150161.63;5106675;28;20050;-77
2022/06/17 07:55:17;;;;;;;6.90;3.45;;;;;;;29.90;100.00;150226.13;5089935;28;20028;-81
2022/06/17 07:57:43;;;;;;;5.45;3.05;;;;;;;29.48;100.00;150120.41;5089801;28;20446;-80
2022/06/17 08:00:18;;;;;;;7.85;3.83;;;;;;;29.44;100.00;150110.09;5089722;28;20054;-72
2022/06/17 08:02:44;;;;;;;7.07;3.85;;;;;;;29.69;100.00;150173.22;5105718;28;20028;-73
2022/06/17 08:05:09;;;;;;;8.05;3.30;;;;;;;30.07;100.00;150268.66;5089526;28;20004;-74
2022/06/17 08:07:35;;;;;;;7.18;3.47;;;;;;;29.49;100.00;150122.97;5089011;28;20468;-75
2022/06/17 08:10:00;;;;;;;6.03;3.72;;;;;;;30.01;100.00;150254.47;5088766;28;20476;-72
2022/06/17 08:12:26;;;;;;;7.93;3.78;;;;;;;29.98;100.00;150246.75;5089767;28;20410;-75
2022/06/17 08:14:54;;;;;;;6.35;4.00;;;;;;;29.62;100.00;150156.50;5088468;28;20028;-72
2022/06/17 08:17:20;;;;;;;6.30;3.30;;;;;;;29.89;100.00;150224.88;5089115;28;20038;-72
2022/06/17 08:19:46;;;;;;;5.35;3.30;;;;;;;29.59;100.00;150147.50;5106356;28;20024;-73
2022/06/17 08:22:11;;;;;;;8.18;3.90;;;;;;;29.35;100.00;150088.16;5089053;28;20115;-72
2022/06/17 08:24:37;;;;;;;9.30;4.35;;;;;;;29.00;100.00;150001.81;5088280;28;20044;-79
2022/06/17 08:27:04;;;;;;;8.25;3.70;;;;;;;29.14;100.00;150035.34;5089174;28;20024;-73
2022/06/17 08:29:29;;;;;;;6.38;3.50;;;;;;;29.70;100.00;150175.81;5105687;28;20502;-73
2022/06/17 08:32:44;;;;;;;9.68;3.40;;;;;;;30.12;100.00;150280.28;5088111;28;20063;-73
2022/06/17 08:34:41;;;;;;;7.18;3.65;;;;;;;29.99;100.00;150248.06;5089531;28;20039;-74
2022/06/17 08:37:06;;;;;;;6.65;3.72;;;;;;;29.24;100.00;150059.84;5088524;28;20020;-74
2022/06/17 08:39:33;;;;;;;5.40;3.60;;;;;;;29.48;100.00;150120.41;5105884;28;20024;-72
2022/06/17 08:42:44;;;;;;;7.63;3.83;;;;;;;29.98;100.00;150246.75;5088572;28;20024;-75
2022/06/17 08:45:15;;;;;;;9.00;3.97;;;;;;;29.70;100.00;150175.81;5104924;28;20119;-73
2022/06/17 08:48:00;;;;;;;7.40;4.00;;;;;;;30.15;100.00;150289.28;5088641;28;20081;-72
2022/06/17 08:50:26;;;;;;;6.10;3.63;;;;;;;30.73;100.00;150435.03;5105562;28;20497;-73
2022/06/17 08:53:02;;;;;;;5.20;3.15;;;;;;;31.41;100.00;150604.03;5104901;28;20028;-73
2022/06/17 08:55:44;;;;;;;7.82;3.67;;;;;;;31.15;100.00;150539.50;5105362;28;20028;-73
2022/06/17 08:58:22;;;;;;;7.50;3.67;;;;;;;30.55;100.00;150388.63;5105303;28;20567;-72
2022/06/17 09:01:05;;;;;;;5.27;3.10;;;;;;;30.73;100.00;150435.03;5088554;28;20481;-73
2022/06/17 09:03:57;;;;;;;7.72;3.17;;;;;;;30.53;100.00;150383.44;5087951;28;20529;-73
2022/06/17 09:06:29;;;;;;;7.00;3.42;;;;;;;30.52;100.00;150380.88;5088394;28;20032;-74
2022/06/17 09:09:19;;;;;;;7.07;3.60;;;;;;;30.67;100.00;150418.25;5105764;28;20028;-73
2022/06/17 09:12:11;;;;;;;5.45;3.40;;;;;;;30.73;100.00;150433.72;5104861;28;20016;-74
2022/06/17 09:14:42;;;;;;;7.95;3.22;;;;;;;30.28;100.00;150320.22;5088430;28;20036;-74
2022/06/17 09:17:19;;;;;;;7.03;3.10;;;;;;;30.52;100.00;150380.88;5105827;28;20069;-73
2022/06/17 09:19:48;;;;;;;7.38;3.00;;;;;;;30.64;100.00;150410.50;5105352;28;20020;-73
2022/06/17 09:22:20;;;;;;;6.20;3.17;;;;;;;30.67;100.00;150418.25;5088938;28;20028;-81
2022/06/17 09:24:45;;;;;;;5.30;3.30;;;;;;;30.41;100.00;150355.09;5088258;28;20384;-81
2022/06/17 09:27:23;;;;;;;6.03;3.28;;;;;;;30.89;100.00;150473.69;5089821;28;20312;-80
2022/06/17 09:29:56;;;;;;;6.82;3.70;;;;;;;30.92;100.00;150482.75;5089006;28;20027;-80
2022/06/17 09:32:29;;;;;;;9.60;3.13;;;;;;;30.65;100.00;150414.38;5088443;28;20020;-78
2022/06/17 09:35:05;;;;;;;4.97;3.10;;;;;;;30.71;100.00;150428.59;5088044;28;20024;-82
2022/06/17 09:37:42;;;;;;;5.28;2.70;;;;;;;31.17;100.00;150544.72;5089132;28;20073;-81
2022/06/17 09:40:19;;;;;;;4.47;3.15;;;;;;;30.17;100.00;150293.16;5089216;28;20020;-76
2022/06/17 09:42:52;;;;;;;6.72;3.20;;;;;;;30.10;100.00;150276.41;5088844;28;20048;-82
2022/06/17 09:45:36;;;;;;;9.27;3.45;;;;;;;29.94;100.00;150236.47;5092090;28;20073;-73
2022/06/17 09:48:08;;;;;;;5.25;3.05;;;;;;;30.54;100.00;150386.03;5092184;28;20028;-83
2022/06/17 09:50:43;;;;;;;4.82;2.90;;;;;;;30.24;100.00;150311.22;5092540;28;20047;-77
2022/06/17 09:53:18;;;;;;;6.75;3.17;;;;;;;30.26;100.00;150316.34;5109526;28;20028;-82
2022/06/17 09:55:48;;;;;;;6.70;3.38;;;;;;;29.81;100.00;150204.22;5092321;28;20051;-79
2022/06/17 09:58:36;;;;;;;10.05;3.10;;;;;;;29.14;100.00;150036.59;5092962;28;20104;-81
2022/06/17 10:01:02;;;;;;;6.93;3.30;;;;;;;29.60;100.00;150151.34;5092237;28;20085;-82
2022/06/17 10:03:32;;;;;;;7.20;3.55;;;;;;;29.49;100.00;150124.28;5093151;28;20553;-73
2022/06/17 10:06:35;;;;;;;5.90;3.15;;;;;;;29.60;100.00;150151.34;5091950;28;20492;-74
2022/06/17 10:09:22;;;;;;;6.75;3.05;;;;;;;29.40;100.00;150099.78;5094185;28;20039;-74
2022/06/17 10:12:03;;;;;;;9.65;5.32;;;;;;;29.50;100.00;150125.56;5093699;28;20523;-78
2022/06/17 10:14:47;;;;;;;7.53;3.05;;;;;;;29.68;100.00;150170.69;5110797;28;20024;-73
2022/06/17 10:20:32;;;;;;;5.70;3.10;;;;;;;29.48;100.00;150120.41;5093208;28;20541;-82
2022/06/17 10:23:10;;;;;;;7.25;3.45;;;;;;;29.58;100.00;150144.88;5091941;28;20405;-82
2022/06/17 10:25:58;;;;;;;7.70;3.03;;;;;;;29.40;100.00;150101.09;5110543;28;20059;-74
2022/06/17 10:28:46;;;;;;;5.47;3.33;;;;;;;29.54;100.00;150137.16;5092520;28;20111;-82
2022/06/17 10:31:39;;;;;;;7.75;3.30;;;;;;;29.25;100.00;150062.44;5041942;28;20551;-73
2022/06/17 10:34:12;;;;;;;4.43;3.00;;;;;;;29.42;100.00;150104.97;5092266;28;20034;-73
2022/06/17 10:36:38;;;;;;;5.80;3.05;;;;;;;29.58;100.00;150144.88;5090865;28;20388;-73
2022/06/17 10:39:10;;;;;;;6.10;3.30;;;;;;;29.43;100.00;150108.81;5091424;28;20165;-75
2022/06/17 10:41:36;;;;;;;9.63;3.40;;;;;;;29.44;100.00;150111.38;5107539;28;20032;-73
2022/06/17 10:44:03;;;;;;;7.68;3.30;;;;;;;29.70;100.00;150175.81;5107649;28;20020;-74
2022/06/17 10:46:32;;;;;;;7.68;3.17;;;;;;;29.40;100.00;150101.09;5091342;28;20032;-77
2022/06/17 10:49:02;;;;;;;6.82;2.90;;;;;;;29.57;100.00;150142.28;5090885;28;20020;-73
2022/06/17 10:51:29;;;;;;;;;;;;;;;29.28;100.00;150070.16;5090835;28;20020;-75
2022/06/17 10:53:59;;;;;;;5.57;3.03;;;;;;;29.49;100.00;150122.97;5090419;28;19912;-73
2022/06/17 10:56:26;;;;;;;7.00;2.88;;;;;;;29.70;100.00;150177.09;5090428;28;20070;-75
2022/06/17 10:59:06;;;;;;;8.27;3.13;;;;;;;29.44;100.00;150110.09;5106873;28;20024;-73
2022/06/17 11:01:53;;;;;;;4.65;3.22;;;;;;;29.34;100.00;150086.91;5090459;28;20020;-75
2022/06/17 11:04:30;;;;;;;5.38;3.00;;;;;;;29.42;100.00;150106.22;5086995;28;20085;-75
2022/06/17 11:07:05;;;;;;;5.40;2.90;;;;;;;29.67;100.00;150168.09;5090898;28;20028;-76
2022/06/17 11:09:39;;;;;;;7.95;3.38;;;;;;;29.56;100.00;150139.75;5091027;28;20058;-81
2022/06/17 11:12:16;;;;;;;9.23;3.05;;;;;;;29.33;100.00;150084.34;5090949;28;20020;-82
2022/06/17 11:14:44;;;;;;;6.53;3.00;;;;;;;29.50;100.00;150125.56;5091422;28;20039;-77
2022/06/17 11:17:21;;;;;;;5.13;2.90;;;;;;;29.57;100.00;150142.28;5108334;28;20049;-75
2022/06/17 11:19:51;;;;;;;5.63;3.28;;;;;;;29.68;100.00;150171.94;5107608;28;20143;-76
2022/06/17 11:22:26;;;;;;;5.35;3.13;;;;;;;29.09;100.00;150023.75;5091650;28;20379;-78
2022/06/17 11:24:56;;;;;;;5.57;3.08;;;;;;;29.57;100.00;150143.63;5107930;28;20085;-81
2022/06/17 11:27:21;;;;;;;9.75;3.35;;;;;;;30.01;100.00;150254.47;5092731;28;20031;-77
2022/06/17 11:29:50;;;;;;;5.55;2.90;;;;;;;29.35;100.00;150089.50;5110626;28;20028;-76
2022/06/17 11:32:32;;;;;;;4.93;3.03;;;;;;;29.35;100.00;150089.50;5091766;28;20058;-81
2022/06/17 11:35:00;;;;;;;5.20;2.90;;;;;;;29.97;100.00;150242.88;5090580;28;20032;-78
2022/06/17 11:37:32;;;;;;;4.38;2.63;;;;;;;30.00;100.00;150251.94;5090253;28;20024;-77
2022/06/17 11:40:24;;;;;;;5.50;2.83;;;;;;;29.99;100.00;150248.06;5090251;28;20362;-81
2022/06/17 11:42:54;;;;;;;4.60;3.00;;;;;;;30.07;100.00;150268.66;5090460;28;20032;-81
2022/06/17 11:45:25;;;;;;;4.45;2.60;;;;;;;29.38;100.00;150095.91;5090555;28;20156;-81